Terminal Aerodrome Forecast
Issued by NWS Twin Cities, MN

Home | Current Version | Previous Version | Graphics & Text | Print | Product List | Glossary On
Versions: 1 2 3 4 5 6 7 8 9 10 11 12 13 14 15 16 17
000
FTUS43 KMPX 190520
TAFEAU
TAF
KEAU 190520Z 1906/2006 02003KT P6SM SKC
     FM190900 02004KT 3SM BR SKC
     FM191300 09005KT P6SM SKC
     FM200000 08014G21KT P6SM BKN035 OVC090 PROB30 2003/2006 4SM
      -TSRA BKN035CB=

USA.gov is the U.S. government's official web portal to all federal, state and local government web resources and services.